Time;durP1;ratioP1;P1;durP2;ratioP2;P2;SDS_P1;SDS_P2;PMS_P1;PMS_P2;Temp;Humidity;BMP_temperature;BMP_pressure;BME280_temperature;BME280_humidity;BME280_pressure;Samples;Min_cycle;Max_cycle;Signal;HPM_P1;HPM_P2
2022/06/24 00:02:04;;;;;;;1.67;1.00;;;25.20;44.80;24.00;100302.00;;;;5037087;28;20036;-67
2022/06/24 00:05:02;;;;;;;1.00;0.88;;;25.20;44.80;24.00;100300.00;;;;5040603;28;20133;-67
2022/06/24 00:07:50;;;;;;;2.80;1.10;;;25.20;44.80;24.00;100295.00;;;;5049187;28;20115;-67
2022/06/24 00:10:36;;;;;;;2.47;1.13;;;25.20;44.80;24.00;100295.00;;;;5041569;28;20433;-67
2022/06/24 00:13:22;;;;;;;1.52;1.08;;;25.20;44.90;24.00;100295.00;;;;5061987;28;20036;-68
2022/06/24 00:16:08;;;;;;;2.35;1.10;;;25.10;44.80;24.00;100290.00;;;;5045553;28;20060;-67
2022/06/24 00:19:10;;;;;;;0.95;0.95;;;25.20;44.80;24.00;100289.00;;;;5065046;28;20036;-68
2022/06/24 00:22:04;;;;;;;1.35;1.20;;;25.20;44.80;24.00;100285.00;;;;5049371;28;20036;-68
2022/06/24 00:24:50;;;;;;;1.17;1.05;;;25.20;44.80;24.00;100278.00;;;;5049502;28;20044;-67
2022/06/24 00:27:36;;;;;;;1.38;1.20;;;25.20;44.80;24.00;100264.00;;;;5029466;28;20045;-67
2022/06/24 00:30:22;;;;;;;1.17;1.10;;;25.20;44.80;24.00;100264.00;;;;5048238;28;20045;-67
2022/06/24 00:33:25;;;;;;;1.23;1.00;;;25.20;44.80;24.00;100260.00;;;;5043009;28;20036;-68
2022/06/24 00:36:11;;;;;;;1.00;0.82;;;25.10;44.80;24.00;100260.00;;;;5047032;28;20075;-67
2022/06/24 00:38:57;;;;;;;2.45;1.25;;;25.20;44.90;24.00;100252.00;;;;5045452;28;20556;-67
2022/06/24 00:41:43;;;;;;;0.80;0.73;;;25.20;44.80;24.00;100255.00;;;;5045710;28;20271;-67
2022/06/24 00:44:44;;;;;;;1.25;1.15;;;25.20;44.90;24.00;100252.00;;;;5058475;28;20490;-67
2022/06/24 00:47:30;;;;;;;1.13;1.10;;;25.10;44.80;24.00;100241.00;;;;5049383;28;20037;-67
2022/06/24 00:50:26;;;;;;;1.08;0.95;;;25.20;44.80;24.00;100240.00;;;;5068336;28;20220;-67
2022/06/24 00:53:13;;;;;;;1.73;1.20;;;25.20;44.80;24.00;100237.00;;;;5037990;28;20534;-68
2022/06/24 00:55:59;;;;;;;1.13;1.02;;;25.10;44.80;24.00;100233.00;;;;5046681;28;20477;-68
2022/06/24 00:58:55;;;;;;;1.33;1.08;;;25.20;44.80;24.00;100229.00;;;;5044738;28;20056;-67
2022/06/24 01:01:42;;;;;;;1.13;1.02;;;25.10;44.80;24.00;100219.00;;;;5046846;28;20074;-67
2022/06/24 01:04:31;;;;;;;2.33;1.02;;;25.20;44.80;24.00;100212.00;;;;5044187;28;20466;-68
2022/06/24 01:07:18;;;;;;;1.30;1.17;;;25.20;44.90;24.00;100209.00;;;;5067438;28;20037;-67
2022/06/24 01:10:05;;;;;;;2.08;1.00;;;25.10;44.70;24.00;100205.00;;;;5064031;28;20115;-67
2022/06/24 01:12:52;;;;;;;1.45;1.20;;;25.20;44.80;24.00;100198.00;;;;5046772;28;20047;-67
2022/06/24 01:15:38;;;;;;;1.30;0.90;;;25.10;44.70;24.00;100194.00;;;;5060258;28;20048;-67
2022/06/24 01:18:24;;;;;;;1.23;1.00;;;25.10;44.70;24.00;100193.00;;;;5046756;28;20044;-67
2022/06/24 01:21:13;;;;;;;1.27;1.20;;;25.10;44.70;24.00;100192.00;;;;5064703;28;20093;-67
2022/06/24 01:24:25;;;;;;;1.25;1.15;;;25.20;44.80;24.00;100194.00;;;;5065860;28;20079;-67
2022/06/24 01:27:11;;;;;;;1.30;1.20;;;25.20;44.80;24.00;100198.00;;;;5062932;28;20508;-67
2022/06/24 01:29:57;;;;;;;2.33;1.30;;;25.20;44.80;24.00;100184.00;;;;5066244;28;20298;-67
2022/06/24 01:32:43;;;;;;;1.30;1.05;;;25.20;44.70;24.00;100195.00;;;;5065346;28;20379;-67
2022/06/24 01:35:29;;;;;;;1.48;1.10;;;25.20;44.70;24.00;100175.00;;;;5064450;28;20563;-67
2022/06/24 01:38:15;;;;;;;4.47;1.13;;;25.10;44.70;24.00;100181.00;;;;5062871;28;20056;-68
2022/06/24 01:41:01;;;;;;;1.02;0.93;;;25.20;44.70;24.00;100179.00;;;;5061631;28;20497;-67
2022/06/24 01:43:48;;;;;;;2.08;1.20;;;25.10;44.50;24.00;100181.00;;;;5058504;28;20048;-67
2022/06/24 01:46:34;;;;;;;1.55;1.15;;;25.20;44.60;24.00;100174.00;;;;5065141;28;20475;-67
2022/06/24 01:49:20;;;;;;;2.00;1.50;;;25.20;44.60;24.00;100164.00;;;;5064761;28;20040;-67
2022/06/24 01:52:06;;;;;;;2.28;1.30;;;25.10;44.50;24.00;100170.00;;;;5063150;28;20330;-67
2022/06/24 01:54:55;;;;;;;1.13;1.00;;;25.20;44.60;24.00;100163.00;;;;5056858;28;20040;-67
2022/06/24 01:57:41;;;;;;;1.30;1.20;;;25.20;44.60;24.00;100163.00;;;;5065379;28;20040;-67
2022/06/24 02:00:27;;;;;;;1.30;1.20;;;25.20;44.60;24.00;100167.00;;;;5061618;28;20382;-67
2022/06/24 02:03:13;;;;;;;1.30;1.17;;;25.10;44.50;24.00;100163.00;;;;5064732;28;20044;-67
2022/06/24 02:06:11;;;;;;;1.38;1.20;;;25.10;44.50;24.00;100152.00;;;;5060520;28;20102;-68
2022/06/24 02:08:57;;;;;;;1.30;1.20;;;25.20;44.60;24.00;100147.00;;;;5059568;28;20117;-67
2022/06/24 02:14:48;;;;;;;2.33;1.20;;;25.10;44.40;24.00;100161.00;;;;5029393;28;20468;-67
2022/06/24 02:17:34;;;;;;;1.20;1.10;;;25.10;44.50;24.00;100178.00;;;;5047100;28;20044;-67
2022/06/24 02:20:20;;;;;;;1.25;1.15;;;25.20;44.50;24.00;100184.00;;;;5042582;28;20032;-67
2022/06/24 02:23:06;;;;;;;3.55;1.30;;;25.10;44.40;24.00;100185.00;;;;5061857;28;20033;-67
2022/06/24 02:25:53;;;;;;;2.13;1.08;;;25.20;44.40;24.00;100192.00;;;;5045577;28;20402;-67
2022/06/24 02:28:39;;;;;;;2.13;1.17;;;25.20;44.30;24.00;100187.00;;;;5049140;28;20047;-67
2022/06/24 02:31:25;;;;;;;3.65;1.30;;;25.10;44.30;24.00;100189.00;;;;5063614;28;20033;-67
2022/06/24 02:34:11;;;;;;;1.80;1.25;;;25.20;44.20;24.00;100183.00;;;;5039180;28;20097;-68
2022/06/24 02:36:57;;;;;;;1.20;1.05;;;25.20;44.30;24.00;100184.00;;;;5063053;28;20033;-67
2022/06/24 02:39:43;;;;;;;2.25;1.60;;;25.20;44.20;24.00;100184.00;;;;5066965;28;20044;-67
2022/06/24 02:42:29;;;;;;;1.67;1.25;;;25.20;44.20;24.00;100176.00;;;;5065845;28;20383;-67
2022/06/24 02:45:15;;;;;;;1.35;1.25;;;25.20;44.20;24.00;100173.00;;;;5061572;28;20032;-67
2022/06/24 02:48:01;;;;;;;1.90;1.33;;;25.20;44.00;24.00;100177.00;;;;5069137;28;20040;-67
2022/06/24 02:50:53;;;;;;;3.30;1.25;;;25.20;44.20;24.00;100178.00;;;;5064658;28;20041;-67
2022/06/24 02:53:39;;;;;;;1.83;1.50;;;25.20;44.20;24.00;100163.00;;;;5067568;28;20381;-67
2022/06/24 02:56:25;;;;;;;2.88;1.23;;;25.20;44.10;24.00;100161.00;;;;5049985;28;20421;-67
2022/06/24 02:59:11;;;;;;;1.45;1.35;;;25.20;44.10;24.00;100166.00;;;;5067388;28;20045;-67
2022/06/24 03:01:57;;;;;;;1.85;1.50;;;25.20;44.00;24.00;100173.00;;;;5052328;28;20044;-67
2022/06/24 03:04:43;;;;;;;1.52;1.40;;;25.20;43.90;24.00;100175.00;;;;5058267;28;20033;-67
2022/06/24 03:07:29;;;;;;;1.77;1.60;;;25.20;43.90;24.00;100167.00;;;;5063735;28;20106;-67
2022/06/24 03:10:15;;;;;;;2.40;1.60;;;25.20;43.90;24.00;100176.00;;;;5065960;28;20069;-67
2022/06/24 03:13:02;;;;;;;3.42;1.77;;;25.10;43.80;24.00;100172.00;;;;5065741;28;20052;-67
2022/06/24 03:15:48;;;;;;;1.30;1.20;;;25.20;43.90;24.00;100165.00;;;;5064176;28;20048;-67
2022/06/24 03:18:34;;;;;;;1.80;1.60;;;25.10;43.90;24.00;100163.00;;;;5066957;28;20036;-67
2022/06/24 03:21:20;;;;;;;1.90;1.15;;;25.10;43.90;24.00;100155.00;;;;5066404;28;20037;-68
2022/06/24 03:24:07;;;;;;;3.15;1.52;;;25.20;44.00;24.00;100143.00;;;;5065660;28;20370;-67
2022/06/24 03:26:53;;;;;;;2.17;1.35;;;25.20;44.10;24.00;100136.00;;;;5065725;28;20393;-67
2022/06/24 03:29:39;;;;;;;5.50;1.63;;;25.20;44.00;24.00;100142.00;;;;5065779;28;20040;-67
2022/06/24 03:32:25;;;;;;;2.63;1.40;;;25.20;44.00;24.00;100138.00;;;;5066996;28;20497;-67
2022/06/24 03:35:11;;;;;;;2.45;1.48;;;25.20;44.10;24.00;100135.00;;;;5062286;28;20057;-67
2022/06/24 03:37:57;;;;;;;1.67;1.50;;;25.20;44.10;24.00;100136.00;;;;5069640;28;20101;-67
2022/06/24 03:40:43;;;;;;;1.48;1.38;;;25.20;44.10;24.00;100146.00;;;;5050323;28;20455;-68
2022/06/24 03:43:29;;;;;;;1.70;1.55;;;25.20;44.10;24.00;100147.00;;;;5067239;28;20041;-68
2022/06/24 03:46:15;;;;;;;5.22;1.50;;;25.20;44.30;24.00;100154.00;;;;5065757;28;20032;-67
2022/06/24 03:49:01;;;;;;;1.90;1.70;;;25.20;44.30;24.00;100172.00;;;;5069219;28;20048;-67
2022/06/24 03:51:47;;;;;;;1.88;1.48;;;25.20;44.40;24.00;100193.00;;;;5050576;28;20032;-67
2022/06/24 03:54:33;;;;;;;4.00;1.58;;;25.20;44.50;24.00;100188.00;;;;5045471;28;20044;-67
2022/06/24 03:57:20;;;;;;;2.20;2.00;;;25.20;44.60;24.00;100176.00;;;;5066544;28;20056;-67
2022/06/24 04:00:09;;;;;;;2.00;1.53;;;25.20;44.60;24.00;100176.00;;;;5063779;28;20268;-67
2022/06/24 04:02:56;;;;;;;1.92;1.83;;;25.20;44.70;24.00;100179.00;;;;5049377;28;20418;-67
2022/06/24 04:05:42;;;;;;;4.60;2.28;;;25.20;44.90;24.00;100180.00;;;;5063979;28;20474;-67
2022/06/24 04:08:28;;;;;;;4.80;2.47;;;25.20;45.20;24.00;100184.00;;;;5063893;28;20056;-67
2022/06/24 04:11:16;;;;;;;5.32;2.63;;;25.20;45.40;24.00;100186.00;;;;5044805;28;20059;-67
2022/06/24 04:14:02;;;;;;;;;;;25.20;45.70;24.00;100176.00;;;;5060803;28;20411;-67
2022/06/24 04:16:48;;;;;;;5.45;2.97;;;25.20;45.30;24.00;100189.00;;;;5052047;28;20041;-67
2022/06/24 04:19:35;;;;;;;5.85;2.65;;;25.20;45.90;24.00;100188.00;;;;5063397;28;20513;-67
2022/06/24 04:22:21;;;;;;;5.47;3.08;;;25.20;46.20;24.00;100200.00;;;;5053975;28;20368;-67
2022/06/24 04:25:08;;;;;;;5.28;2.90;;;25.20;46.60;24.00;100229.00;;;;5045801;28;20094;-67
2022/06/24 04:27:54;;;;;;;7.38;2.67;;;25.20;46.70;24.00;100255.00;;;;5064141;28;20586;-67
2022/06/24 04:30:40;;;;;;;5.05;3.00;;;25.20;46.80;24.00;100243.00;;;;5066886;28;20055;-67
2022/06/24 04:33:26;;;;;;;7.13;2.65;;;25.20;46.80;24.00;100224.00;;;;5066298;28;20413;-68
2022/06/24 04:36:13;;;;;;;13.13;3.60;;;25.20;46.90;24.00;100218.00;;;;5066075;28;20044;-67
2022/06/24 04:38:59;;;;;;;8.20;3.40;;;25.20;47.50;24.00;100214.00;;;;5056975;28;20348;-67
2022/06/24 04:41:45;;;;;;;7.65;3.85;;;25.20;48.00;24.00;100211.00;;;;5067043;28;20039;-68
2022/06/24 04:44:31;;;;;;;3.92;3.28;;;25.20;48.50;24.00;100203.00;;;;5066497;28;20039;-67
2022/06/24 04:47:18;;;;;;;5.90;3.85;;;25.20;48.40;24.00;100198.00;;;;5062056;28;20087;-67
2022/06/24 04:50:05;;;;;;;4.97;3.70;;;25.20;48.70;24.00;100203.00;;;;5065682;28;20064;-67
2022/06/24 04:52:51;;;;;;;7.15;3.45;;;25.20;48.60;24.00;100200.00;;;;5064707;28;20033;-67
2022/06/24 04:55:37;;;;;;;6.75;4.22;;;25.20;48.60;24.00;100200.00;;;;5047363;28;20123;-67
2022/06/24 04:58:23;;;;;;;5.10;3.40;;;25.20;48.60;24.00;100191.00;;;;5056688;28;20044;-67
2022/06/24 05:01:09;;;;;;;6.28;3.55;;;25.20;48.40;24.00;100194.00;;;;5064115;28;20082;-67
2022/06/24 05:03:56;;;;;;;4.90;3.17;;;25.20;48.50;24.00;100202.00;;;;5042018;28;20064;-67
2022/06/24 05:06:42;;;;;;;5.60;3.40;;;25.20;48.50;24.00;100210.00;;;;5067456;28;20043;-67
2022/06/24 05:09:28;;;;;;;6.03;3.50;;;25.20;48.70;24.00;100223.00;;;;5061049;28;20037;-67
2022/06/24 05:12:14;;;;;;;5.85;3.65;;;25.20;48.80;24.00;100232.00;;;;5067646;28;20036;-68
2022/06/24 05:15:00;;;;;;;3.85;3.10;;;25.20;48.70;24.00;100255.00;;;;5065126;28;20032;-67
2022/06/24 05:17:46;;;;;;;4.40;3.03;;;25.20;48.70;24.00;100247.00;;;;5043182;28;20496;-67
2022/06/24 05:20:32;;;;;;;4.97;2.75;;;25.20;48.50;24.00;100231.00;;;;5065737;28;20052;-67
2022/06/24 05:23:18;;;;;;;4.63;2.60;;;25.20;48.30;24.00;100239.00;;;;5063327;28;20044;-67
2022/06/24 05:26:04;;;;;;;4.18;2.88;;;25.20;48.00;24.00;100247.00;;;;5063323;28;20083;-67
2022/06/24 05:28:50;;;;;;;3.05;2.72;;;25.20;48.00;24.00;100235.00;;;;5064030;28;20045;-67
2022/06/24 05:31:37;;;;;;;5.80;2.63;;;25.20;48.00;24.00;100220.00;;;;5050436;28;20383;-67
2022/06/24 05:34:23;;;;;;;5.43;2.72;;;25.20;48.00;24.00;100224.00;;;;5059716;28;20044;-67
2022/06/24 05:37:09;;;;;;;5.55;3.00;;;25.20;48.20;24.10;100225.00;;;;5064023;28;20036;-67
2022/06/24 05:39:55;;;;;;;4.28;3.20;;;25.20;48.60;24.10;100231.00;;;;5063911;28;20039;-67
2022/06/24 05:42:41;;;;;;;4.53;2.72;;;25.20;49.30;24.00;100239.00;;;;5059790;28;20418;-67
2022/06/24 05:45:27;;;;;;;5.22;3.35;;;25.20;49.20;24.00;100246.00;;;;5062646;28;20043;-67
2022/06/24 05:48:14;;;;;;;6.13;3.22;;;25.20;49.00;24.10;100238.00;;;;5061065;28;20428;-67
2022/06/24 05:51:07;;;;;;;4.95;3.28;;;25.20;49.20;24.00;100216.00;;;;5060315;28;20051;-67
2022/06/24 05:56:57;;;;;;;5.40;3.38;;;25.20;49.80;24.00;100241.00;;;;5065283;28;20040;-67
2022/06/24 05:59:43;;;;;;;6.97;3.42;;;25.20;49.50;24.00;100252.00;;;;5065598;28;20085;-67
2022/06/24 06:02:29;;;;;;;5.95;3.05;;;25.20;49.50;24.00;100252.00;;;;5060817;28;20025;-67
2022/06/24 06:05:15;;;;;;;4.70;3.13;;;25.30;49.60;24.00;100262.00;;;;5065419;28;20037;-67
2022/06/24 06:08:01;;;;;;;8.18;3.28;;;25.20;50.30;24.00;100273.00;;;;5064647;28;20402;-67
2022/06/24 06:10:47;;;;;;;5.55;3.70;;;25.20;50.00;24.00;100293.00;;;;5063874;28;20051;-67
2022/06/24 06:13:33;;;;;;;7.00;3.58;;;25.10;50.30;24.10;100312.00;;;;5066249;28;20044;-67
2022/06/24 06:16:21;;;;;;;6.45;3.50;;;25.20;50.10;24.10;100334.00;;;;5044334;28;20057;-67
2022/06/24 06:19:07;;;;;;;;;;;25.20;50.30;24.00;100339.00;;;;5035916;28;20044;-66
2022/06/24 06:21:54;;;;;;;4.78;3.13;;;25.20;49.50;24.00;100340.00;;;;5066018;28;19942;-67
2022/06/24 06:24:40;;;;;;;4.50;2.95;;;25.20;50.20;24.00;100335.00;;;;5065498;28;20036;-67
2022/06/24 06:27:26;;;;;;;4.25;2.92;;;25.30;50.30;24.00;100310.00;;;;5066772;28;20064;-67
2022/06/24 06:30:13;;;;;;;5.60;3.53;;;25.20;50.20;24.00;100290.00;;;;5044886;28;20033;-67
2022/06/24 06:32:59;;;;;;;8.52;3.60;;;25.20;50.70;24.00;100293.00;;;;5066951;28;20124;-67
2022/06/24 06:35:45;;;;;;;7.15;3.78;;;25.20;51.50;24.00;100280.00;;;;5050205;28;20040;-67
2022/06/24 06:38:31;;;;;;;5.60;4.30;;;25.20;51.70;24.10;100267.00;;;;5064237;28;20079;-68
2022/06/24 06:41:17;;;;;;;5.40;3.85;;;25.20;51.90;24.10;100265.00;;;;5060865;28;20071;-67
2022/06/24 06:44:03;;;;;;;7.50;4.43;;;25.20;52.30;24.10;100237.00;;;;5060854;28;20504;-67
2022/06/24 06:46:50;;;;;;;6.57;4.00;;;25.20;52.70;24.10;100217.00;;;;5060287;28;20037;-67
2022/06/24 06:49:36;;;;;;;6.25;3.95;;;25.20;52.60;24.10;100219.00;;;;5059949;28;20032;-67
2022/06/24 06:52:22;;;;;;;5.88;3.30;;;25.20;52.20;24.10;100208.00;;;;5066108;28;20474;-67
2022/06/24 06:55:08;;;;;;;5.57;3.53;;;25.20;52.00;24.10;100217.00;;;;5054377;28;20048;-67
2022/06/24 06:57:54;;;;;;;5.10;3.28;;;25.20;51.90;24.10;100227.00;;;;5058010;28;20430;-67
2022/06/24 07:00:41;;;;;;;5.97;3.80;;;25.20;51.90;24.10;100234.00;;;;5063621;28;20048;-67
2022/06/24 07:03:27;;;;;;;6.35;3.65;;;25.20;51.70;24.10;100237.00;;;;5064570;28;20032;-67
2022/06/24 07:06:13;;;;;;;3.90;3.42;;;25.20;51.80;24.10;100225.00;;;;5060665;28;20037;-67
2022/06/24 07:08:59;;;;;;;5.22;3.60;;;25.20;51.80;24.00;100218.00;;;;5063365;28;20551;-67
2022/06/24 07:11:45;;;;;;;4.57;3.38;;;25.20;51.80;24.10;100224.00;;;;5060042;28;20611;-67
2022/06/24 07:14:31;;;;;;;6.65;3.63;;;25.20;51.70;24.10;100214.00;;;;5059559;28;20036;-67
2022/06/24 07:17:17;;;;;;;5.28;3.63;;;25.20;51.70;24.10;100229.00;;;;5061920;28;20048;-67
2022/06/24 07:20:04;;;;;;;4.45;3.30;;;25.10;51.70;24.10;100248.00;;;;5063170;28;20056;-68
2022/06/24 07:22:50;;;;;;;3.95;3.30;;;25.20;51.70;24.10;100246.00;;;;5058978;28;20040;-68
2022/06/24 07:25:36;;;;;;;5.07;3.38;;;25.30;51.80;24.10;100229.00;;;;5067330;28;20470;-67
2022/06/24 07:28:24;;;;;;;3.70;2.75;;;25.20;51.80;24.10;100231.00;;;;5067594;28;20044;-67
2022/06/24 07:31:17;;;;;;;7.13;3.10;;;25.20;51.80;24.10;100227.00;;;;5061231;28;20048;-67
2022/06/24 07:34:04;;;;;;;3.28;2.75;;;25.20;51.90;24.10;100230.00;;;;5050582;28;20112;-67
2022/06/24 07:36:50;;;;;;;3.95;2.90;;;25.20;51.70;24.10;100212.00;;;;5065144;28;20418;-67
2022/06/24 07:39:36;;;;;;;3.63;2.88;;;25.20;51.70;24.10;100200.00;;;;5065891;28;20055;-67
2022/06/24 07:42:22;;;;;;;6.50;3.08;;;25.20;51.80;24.10;100190.00;;;;5051943;28;20111;-67
2022/06/24 07:45:10;;;;;;;3.47;3.17;;;25.20;51.80;24.10;100178.00;;;;5065271;28;20122;-67
2022/06/24 07:47:56;;;;;;;6.63;2.72;;;25.20;51.80;24.10;100176.00;;;;5064070;28;20190;-67
2022/06/24 07:50:42;;;;;;;3.58;2.85;;;25.20;51.60;24.10;100175.00;;;;5039864;28;20040;-67
2022/06/24 07:53:30;;;;;;;3.78;2.50;;;25.30;51.60;24.10;100176.00;;;;5069197;28;20406;-67
2022/06/24 07:59:20;;;;;;;5.05;2.67;;;25.20;51.60;24.10;100199.00;;;;5067271;28;20382;-67
2022/06/24 08:02:07;;;;;;;5.20;3.10;;;25.20;51.60;24.10;100207.00;;;;5053519;28;20036;-68
2022/06/24 08:04:54;;;;;;;3.83;2.63;;;25.20;51.70;24.10;100215.00;;;;5066754;28;20482;-67
2022/06/24 08:07:40;;;;;;;5.80;2.70;;;25.20;51.70;24.10;100204.00;;;;5066477;28;20050;-67
2022/06/24 08:10:26;;;;;;;3.97;2.88;;;25.20;51.70;24.10;100198.00;;;;5036318;28;20111;-67
2022/06/24 08:13:13;;;;;;;2.85;2.53;;;25.20;51.80;24.10;100199.00;;;;5063061;28;20169;-67
2022/06/24 08:16:00;;;;;;;3.97;2.70;;;25.20;51.70;24.10;100194.00;;;;5064960;28;20045;-67
2022/06/24 08:18:46;;;;;;;4.80;3.00;;;25.20;51.70;24.10;100201.00;;;;5049139;28;20044;-67
2022/06/24 08:21:32;;;;;;;4.10;2.92;;;25.20;51.70;24.10;100194.00;;;;5063697;28;20044;-67
2022/06/24 08:24:18;;;;;;;3.80;3.00;;;25.20;51.80;24.10;100193.00;;;;5046904;28;20047;-67
2022/06/24 08:27:04;;;;;;;5.00;2.83;;;25.20;51.80;24.10;100194.00;;;;5063571;28;20041;-67
2022/06/24 08:29:51;;;;;;;4.30;3.03;;;25.20;51.80;24.10;100194.00;;;;5063832;28;20036;-67
2022/06/24 08:32:37;;;;;;;4.28;3.28;;;25.20;51.60;24.10;100197.00;;;;5064517;28;20123;-67
2022/06/24 08:35:23;;;;;;;5.45;3.30;;;25.20;52.00;24.10;100196.00;;;;5066114;28;20032;-67
2022/06/24 08:38:09;;;;;;;4.47;2.88;;;25.20;51.90;24.10;100192.00;;;;5065268;28;20044;-67
2022/06/24 08:40:55;;;;;;;5.90;3.40;;;25.20;52.10;24.10;100199.00;;;;5067397;28;20398;-67
2022/06/24 08:43:41;;;;;;;3.50;2.83;;;25.20;52.10;24.10;100182.00;;;;5065108;28;20040;-67
2022/06/24 08:46:27;;;;;;;5.13;3.00;;;25.20;52.00;24.10;100188.00;;;;5039437;28;20090;-67
2022/06/24 08:49:13;;;;;;;4.03;2.45;;;25.20;52.40;24.10;100190.00;;;;5057386;28;20070;-67
2022/06/24 08:52:00;;;;;;;4.25;3.40;;;25.30;52.70;24.10;100187.00;;;;5050652;28;20041;-67
2022/06/24 08:54:46;;;;;;;7.00;3.30;;;25.20;52.60;24.10;100194.00;;;;5061356;28;20055;-67
2022/06/24 08:57:32;;;;;;;4.70;3.05;;;25.20;52.40;24.10;100191.00;;;;5022378;28;20250;-67
2022/06/24 09:00:19;;;;;;;4.18;2.88;;;25.20;52.60;24.10;100194.00;;;;5048974;28;20044;-67
2022/06/24 09:03:05;;;;;;;3.72;2.95;;;25.20;52.60;24.10;100190.00;;;;5059057;28;20457;-67
2022/06/24 09:05:51;;;;;;;3.42;2.63;;;25.20;52.60;24.10;100198.00;;;;5050900;28;20580;-67
2022/06/24 09:08:37;;;;;;;2.90;2.28;;;25.30;52.50;24.10;100204.00;;;;5062701;28;20036;-67
2022/06/24 09:11:23;;;;;;;4.47;2.75;;;25.20;52.60;24.10;100196.00;;;;5066909;28;20082;-67
2022/06/24 09:14:09;;;;;;;4.85;2.50;;;25.30;53.10;24.10;100206.00;;;;5050317;28;20070;-68
2022/06/24 09:16:55;;;;;;;5.78;2.90;;;25.20;53.20;24.10;100209.00;;;;5049326;28;20040;-67
2022/06/24 09:19:41;;;;;;;6.72;3.38;;;25.20;53.30;24.10;100198.00;;;;5047877;28;20440;-67
2022/06/24 09:22:27;;;;;;;6.00;3.10;;;25.20;54.00;24.10;100200.00;;;;5046927;28;20037;-67
2022/06/24 09:25:14;;;;;;;6.72;2.40;;;25.20;54.10;24.10;100198.00;;;;5061399;28;20028;-67
2022/06/24 09:28:00;;;;;;;3.42;2.13;;;25.30;54.30;24.10;100198.00;;;;5063986;28;20467;-67
2022/06/24 09:30:46;;;;;;;6.80;2.25;;;25.20;54.30;24.10;100208.00;;;;5063668;28;20521;-67
2022/06/24 09:33:42;;;;;;;4.55;2.72;;;25.20;54.40;24.10;100200.00;;;;5061430;28;20052;-67
2022/06/24 09:36:28;;;;;;;4.72;2.03;;;25.20;54.60;24.10;100197.00;;;;5048905;28;20124;-67
2022/06/24 09:39:16;;;;;;;3.05;2.00;;;25.20;54.20;24.10;100201.00;;;;5057439;28;20048;-67
2022/06/24 09:42:02;;;;;;;3.33;2.17;;;25.20;54.30;24.10;100204.00;;;;5064644;28;20103;-67
2022/06/24 09:44:48;;;;;;;2.67;1.83;;;25.20;54.20;24.10;100203.00;;;;5047485;28;20047;-67
2022/06/24 09:47:41;;;;;;;3.72;1.80;;;25.20;53.90;24.10;100203.00;;;;5044055;28;20450;-67
2022/06/24 09:50:27;;;;;;;2.80;2.00;;;25.20;54.40;24.10;100206.00;;;;5047593;28;20094;-67
2022/06/24 09:53:13;;;;;;;3.03;1.73;;;25.20;54.00;24.10;100207.00;;;;5017824;28;20493;-67
2022/06/24 09:55:59;;;;;;;3.17;2.00;;;25.20;54.00;24.10;100208.00;;;;5035257;28;20041;-67
2022/06/24 10:00:40;;;;;;;5.10;1.70;;;25.30;54.00;24.10;100206.00;;;;5043967;28;20487;-67
2022/06/24 10:01:52;;;;;;;2.80;2.05;;;25.20;54.00;24.10;100194.00;;;;5061525;28;20401;-67
2022/06/24 10:04:38;;;;;;;2.83;1.80;;;25.20;53.70;24.10;100195.00;;;;5018177;28;20395;-67
2022/06/24 10:07:27;;;;;;;3.15;2.13;;;25.20;53.80;24.10;100187.00;;;;5031653;28;20033;-67
2022/06/24 10:10:17;;;;;;;2.45;1.80;;;25.20;53.80;24.10;100193.00;;;;5051717;28;20109;-67
2022/06/24 10:13:07;;;;;;;3.65;1.90;;;25.20;53.80;24.10;100185.00;;;;5055822;28;20036;-67
2022/06/24 10:15:58;;;;;;;4.78;2.10;;;25.20;54.10;24.10;100182.00;;;;5035387;28;20410;-67
2022/06/24 10:18:44;;;;;;;3.28;2.35;;;25.20;53.70;24.10;100182.00;;;;5030668;28;20043;-67
2022/06/24 10:21:30;;;;;;;3.33;2.00;;;25.20;54.20;24.10;100180.00;;;;5050622;28;20055;-67
2022/06/24 10:24:16;;;;;;;3.67;1.98;;;25.20;54.10;24.10;100175.00;;;;5051792;28;20040;-67
2022/06/24 10:27:03;;;;;;;4.43;2.38;;;25.20;54.10;24.10;100194.00;;;;5059209;28;20047;-67
2022/06/24 10:29:49;;;;;;;3.72;2.58;;;25.20;54.60;24.10;100207.00;;;;5059610;28;20060;-67
2022/06/24 10:32:35;;;;;;;4.43;3.13;;;25.20;55.00;24.10;100199.00;;;;5063922;28;20053;-67
2022/06/24 10:35:21;;;;;;;3.92;2.67;;;25.20;55.50;24.10;100200.00;;;;5048042;28;20066;-67
2022/06/24 10:38:07;;;;;;;3.22;2.92;;;25.20;55.70;24.10;100198.00;;;;5047866;28;20090;-67
2022/06/24 10:40:53;;;;;;;6.57;3.25;;;25.30;56.00;24.10;100190.00;;;;5035812;28;20071;-67
2022/06/24 10:43:41;;;;;;;6.65;3.45;;;25.30;56.10;24.10;100200.00;;;;5046335;28;20033;-67
2022/06/24 10:46:27;;;;;;;4.47;3.90;;;25.20;56.30;24.10;100200.00;;;;5065071;28;20604;-67
2022/06/24 10:49:13;;;;;;;4.00;3.28;;;25.20;56.50;24.10;100207.00;;;;5047461;28;20090;-67
2022/06/24 10:52:33;;;;;;;3.70;3.40;;;25.20;56.40;24.10;100210.00;;;;5065939;28;20482;-67
2022/06/24 10:55:24;;;;;;;5.75;3.53;;;25.20;56.60;24.10;100209.00;;;;5057799;28;20051;-67
2022/06/24 10:58:13;;;;;;;3.85;2.90;;;25.20;56.40;24.10;100215.00;;;;5064478;28;20127;-67
2022/06/24 11:00:59;;;;;;;3.30;3.00;;;25.20;56.50;24.10;100225.00;;;;5051961;28;20041;-67
2022/06/24 11:03:45;;;;;;;3.95;2.50;;;25.20;56.50;24.10;100224.00;;;;5068626;28;20536;-67
2022/06/24 11:06:31;;;;;;;2.72;2.53;;;25.20;56.60;24.10;100226.00;;;;5052454;28;20036;-67
2022/06/24 11:09:17;;;;;;;3.05;2.63;;;25.20;56.70;24.10;100230.00;;;;5049003;28;20040;-67
2022/06/24 11:12:05;;;;;;;2.42;2.22;;;25.30;56.70;24.10;100241.00;;;;5068741;28;20393;-67
2022/06/24 11:14:51;;;;;;;2.33;2.13;;;25.20;56.40;24.10;100250.00;;;;5067592;28;20040;-67
2022/06/24 11:17:41;;;;;;;3.15;1.85;;;25.30;56.50;24.10;100241.00;;;;5071380;28;20461;-67
2022/06/24 11:20:27;;;;;;;1.70;1.60;;;25.20;56.80;24.10;100246.00;;;;5045395;28;20048;-67
2022/06/24 11:23:17;;;;;;;2.10;1.80;;;25.20;56.70;24.10;100257.00;;;;5045862;28;20032;-67
2022/06/24 11:26:17;;;;;;;2.10;1.70;;;25.20;56.70;24.10;100261.00;;;;5052447;28;20044;-67
2022/06/24 11:29:03;;;;;;;3.63;1.70;;;25.20;56.70;24.10;100254.00;;;;5048241;28;20080;-67
2022/06/24 11:31:49;;;;;;;2.42;1.58;;;25.30;56.70;24.10;100252.00;;;;5069365;28;20505;-67
2022/06/24 11:34:36;;;;;;;1.85;1.75;;;25.10;56.50;24.10;100254.00;;;;5060955;28;20048;-67
2022/06/24 11:37:23;;;;;;;1.63;1.52;;;25.10;56.50;24.10;100269.00;;;;5064932;28;20040;-67
2022/06/24 11:40:10;;;;;;;1.80;1.70;;;25.20;56.40;24.10;100275.00;;;;5052393;28;20036;-68
2022/06/24 11:42:56;;;;;;;1.83;1.60;;;25.20;56.40;24.10;100280.00;;;;5068510;28;20037;-67
2022/06/24 11:45:47;;;;;;;2.45;2.05;;;25.20;56.40;24.10;100263.00;;;;5051884;28;20047;-67
2022/06/24 11:48:33;;;;;;;2.13;1.85;;;25.20;56.60;24.10;100257.00;;;;5057062;28;20040;-68
2022/06/24 11:51:22;;;;;;;2.67;2.03;;;25.20;56.40;24.10;100267.00;;;;5047597;28;20048;-67
2022/06/24 11:54:08;;;;;;;2.83;2.40;;;25.20;56.40;24.10;100269.00;;;;5052669;28;20044;-67
2022/06/24 11:56:55;;;;;;;3.38;2.20;;;25.20;56.20;24.10;100252.00;;;;5065495;28;20036;-67
2022/06/24 11:59:41;;;;;;;4.53;2.10;;;25.20;56.00;24.10;100251.00;;;;5068095;28;20040;-67
2022/06/24 12:02:27;;;;;;;2.17;1.90;;;25.20;56.20;24.10;100253.00;;;;5065768;28;20036;-67
2022/06/24 12:05:14;;;;;;;2.25;2.05;;;25.20;56.20;24.10;100258.00;;;;5043539;28;20028;-67
2022/06/24 12:08:00;;;;;;;2.40;2.20;;;25.20;56.20;24.10;100252.00;;;;5050304;28;20040;-66
2022/06/24 12:10:54;;;;;;;2.85;2.58;;;25.30;56.20;24.10;100247.00;;;;5055247;28;20307;-66
2022/06/24 12:13:40;;;;;;;3.38;2.33;;;25.20;56.20;24.10;100248.00;;;;5064266;28;20074;-66
2022/06/24 12:16:26;;;;;;;3.13;2.20;;;25.30;56.20;24.10;100255.00;;;;5066733;28;20366;-67
2022/06/24 12:19:12;;;;;;;3.27;2.13;;;25.30;56.20;24.20;100260.00;;;;5050219;28;20397;-66
2022/06/24 12:22:10;;;;;;;2.47;2.28;;;25.30;56.10;24.10;100253.00;;;;5064678;28;20040;-66
2022/06/24 12:25:05;;;;;;;2.47;2.17;;;25.30;56.10;24.10;100259.00;;;;5064144;28;20032;-67